sensor_id;sensor_type;location;lat;lon;timestamp;pressure;altitude;pressure_sealevel;temperature;humidity
55757;BME280;41676;44.610;44.078;2022-10-13T00:01:34;101099.72;;;7.11;95.89
55757;BME280;41676;44.610;44.078;2022-10-13T00:06:34;101100.94;;;7.07;96.51
55757;BME280;41676;44.610;44.078;2022-10-13T00:11:35;100967.94;;;6.11;96.61
55757;BME280;41676;44.610;44.078;2022-10-13T00:16:36;101104.13;;;6.90;96.43
55757;BME280;41676;44.610;44.078;2022-10-13T00:21:37;101071.97;;;6.84;97.24
55757;BME280;41676;44.610;44.078;2022-10-13T00:26:38;101098.56;;;7.04;96.73
55757;BME280;41676;44.610;44.078;2022-10-13T00:31:39;101105.50;;;7.05;96.76
55757;BME280;41676;44.610;44.078;2022-10-13T00:36:39;101105.72;;;7.13;95.96
55757;BME280;41676;44.610;44.078;2022-10-13T00:41:40;101110.28;;;7.11;96.21
55757;BME280;41676;44.610;44.078;2022-10-13T00:46:41;101113.25;;;7.18;96.46
55757;BME280;41676;44.610;44.078;2022-10-13T00:51:44;101115.88;;;7.18;96.96
55757;BME280;41676;44.610;44.078;2022-10-13T00:56:47;101103.44;;;7.08;96.73
55757;BME280;41676;44.610;44.078;2022-10-13T01:01:50;101096.38;;;7.09;96.47
55757;BME280;41676;44.610;44.078;2022-10-13T01:06:53;101030.16;;;6.69;97.60
55757;BME280;41676;44.610;44.078;2022-10-13T01:12:12;101109.88;;;7.27;99.15
55757;BME280;41676;44.610;44.078;2022-10-13T01:43:37;101121.56;;;7.13;98.30
55757;BME280;41676;44.610;44.078;2022-10-13T01:48:41;101131.88;;;7.16;98.02
55757;BME280;41676;44.610;44.078;2022-10-13T01:53:46;101099.25;;;6.85;97.88
55757;BME280;41676;44.610;44.078;2022-10-13T01:58:49;101144.53;;;7.13;98.32
55757;BME280;41676;44.610;44.078;2022-10-13T02:04:11;101157.47;;;7.16;100.00
55757;BME280;41676;44.610;44.078;2022-10-13T02:09:33;101147.28;;;7.11;100.00
55757;BME280;41676;44.610;44.078;2022-10-13T02:14:37;101135.31;;;6.96;99.28
55757;BME280;41676;44.610;44.078;2022-10-13T02:19:40;101131.00;;;6.95;98.65
55757;BME280;41676;44.610;44.078;2022-10-13T02:24:41;101039.34;;;6.42;98.29
55757;BME280;41676;44.610;44.078;2022-10-13T02:29:53;101132.22;;;6.91;100.00
55757;BME280;41676;44.610;44.078;2022-10-13T02:34:53;101143.25;;;6.96;99.38
55757;BME280;41676;44.610;44.078;2022-10-13T02:39:54;101033.50;;;6.27;99.80
55757;BME280;41676;44.610;44.078;2022-10-13T02:44:55;101138.47;;;6.90;99.99
55757;BME280;41676;44.610;44.078;2022-10-13T02:49:56;101140.88;;;6.81;99.76
55757;BME280;41676;44.610;44.078;2022-10-13T02:54:56;101055.81;;;6.23;100.00
55757;BME280;41676;44.610;44.078;2022-10-13T02:59:57;101023.84;;;6.05;99.83
55757;BME280;41676;44.610;44.078;2022-10-13T03:04:58;101043.63;;;6.11;99.68
55757;BME280;41676;44.610;44.078;2022-10-13T03:09:59;101114.78;;;6.56;99.36
55757;BME280;41676;44.610;44.078;2022-10-13T03:14:59;101131.31;;;6.69;99.57
55757;BME280;41676;44.610;44.078;2022-10-13T03:20:00;101129.50;;;6.70;99.61
55757;BME280;41676;44.610;44.078;2022-10-13T03:25:01;101133.84;;;6.71;99.25
55757;BME280;41676;44.610;44.078;2022-10-13T03:30:03;101021.19;;;6.05;100.00
55757;BME280;41676;44.610;44.078;2022-10-13T03:35:05;101144.75;;;6.77;99.71
55757;BME280;41676;44.610;44.078;2022-10-13T03:40:07;101098.94;;;6.56;100.00
55757;BME280;41676;44.610;44.078;2022-10-13T03:45:08;101137.75;;;6.88;99.75
55757;BME280;41676;44.610;44.078;2022-10-13T03:50:10;101014.88;;;6.40;99.95
55757;BME280;41676;44.610;44.078;2022-10-13T03:55:11;101022.13;;;6.70;99.84
55757;BME280;41676;44.610;44.078;2022-10-13T04:00:12;101133.97;;;7.75;98.90
55757;BME280;41676;44.610;44.078;2022-10-13T04:05:13;101011.19;;;7.47;97.73
55757;BME280;41676;44.610;44.078;2022-10-13T04:10:14;100930.94;;;7.18;96.68
55757;BME280;41676;44.610;44.078;2022-10-13T04:15:15;101141.31;;;8.54;96.28
55757;BME280;41676;44.610;44.078;2022-10-13T04:20:15;101024.25;;;7.70;96.58
55757;BME280;41676;44.610;44.078;2022-10-13T04:25:17;101039.22;;;7.60;97.48
55757;BME280;41676;44.610;44.078;2022-10-13T04:30:17;101158.69;;;8.16;97.96
55757;BME280;41676;44.610;44.078;2022-10-13T04:35:18;101168.63;;;8.24;98.48
55757;BME280;41676;44.610;44.078;2022-10-13T04:40:19;101161.19;;;8.39;98.47
55757;BME280;41676;44.610;44.078;2022-10-13T04:45:20;101135.34;;;8.31;98.16
55757;BME280;41676;44.610;44.078;2022-10-13T04:50:21;101129.63;;;8.57;98.24
55757;BME280;41676;44.610;44.078;2022-10-13T04:55:21;101165.25;;;9.03;98.16
55757;BME280;41676;44.610;44.078;2022-10-13T05:00:22;101152.69;;;9.14;97.81
55757;BME280;41676;44.610;44.078;2022-10-13T05:05:23;101158.56;;;9.37;97.56
55757;BME280;41676;44.610;44.078;2022-10-13T05:10:24;101046.97;;;8.92;96.61
55757;BME280;41676;44.610;44.078;2022-10-13T05:15:24;101169.97;;;9.77;96.49
55757;BME280;41676;44.610;44.078;2022-10-13T05:20:25;101153.44;;;9.93;95.92
55757;BME280;41676;44.610;44.078;2022-10-13T05:25:26;101138.00;;;10.16;95.52
55757;BME280;41676;44.610;44.078;2022-10-13T05:30:27;101145.81;;;10.55;94.22
55757;BME280;41676;44.610;44.078;2022-10-13T05:35:28;101157.66;;;11.06;93.07
55757;BME280;41676;44.610;44.078;2022-10-13T05:40:28;101073.44;;;10.88;91.43
55757;BME280;41676;44.610;44.078;2022-10-13T05:45:31;101131.25;;;11.22;90.91
55757;BME280;41676;44.610;44.078;2022-10-13T05:50:33;101156.53;;;11.26;90.97
55757;BME280;41676;44.610;44.078;2022-10-13T05:55:34;101157.59;;;11.33;90.82
55757;BME280;41676;44.610;44.078;2022-10-13T06:00:35;101051.31;;;11.06;90.03
55757;BME280;41676;44.610;44.078;2022-10-13T06:05:36;101133.34;;;11.80;89.19
55757;BME280;41676;44.610;44.078;2022-10-13T06:10:37;101143.81;;;12.34;87.54
55757;BME280;41676;44.610;44.078;2022-10-13T06:15:38;101126.09;;;12.67;86.11
55757;BME280;41676;44.610;44.078;2022-10-13T06:20:39;101062.44;;;12.56;84.37
55757;BME280;41676;44.610;44.078;2022-10-13T06:25:50;101121.38;;;13.28;79.38
55757;BME280;41676;44.610;44.078;2022-10-13T06:30:51;101114.38;;;13.60;80.92
55757;BME280;41676;44.610;44.078;2022-10-13T06:36:02;101126.69;;;13.77;79.04
55757;BME280;41676;44.610;44.078;2022-10-13T06:41:04;101094.50;;;13.70;79.63
55757;BME280;41676;44.610;44.078;2022-10-13T06:46:05;101120.28;;;14.03;78.76
55757;BME280;41676;44.610;44.078;2022-10-13T06:51:08;101114.19;;;14.33;77.21
55757;BME280;41676;44.610;44.078;2022-10-13T06:56:09;101107.44;;;14.54;76.81
55757;BME280;41676;44.610;44.078;2022-10-13T07:01:11;101085.19;;;14.53;75.10
55757;BME280;41676;44.610;44.078;2022-10-13T07:06:12;101099.44;;;15.00;74.67
55757;BME280;41676;44.610;44.078;2022-10-13T07:11:14;101098.06;;;15.27;72.11
55757;BME280;41676;44.610;44.078;2022-10-13T07:16:15;101079.19;;;15.58;70.81
55757;BME280;41676;44.610;44.078;2022-10-13T07:21:16;101094.19;;;15.82;70.50
55757;BME280;41676;44.610;44.078;2022-10-13T07:26:16;101083.75;;;16.02;69.53
55757;BME280;41676;44.610;44.078;2022-10-13T07:31:19;101081.78;;;16.40;66.09
55757;BME280;41676;44.610;44.078;2022-10-13T07:36:20;100997.28;;;16.30;65.17
55757;BME280;41676;44.610;44.078;2022-10-13T07:41:20;101058.16;;;17.08;65.59
55757;BME280;41676;44.610;44.078;2022-10-13T07:46:21;101053.53;;;17.24;63.80
55757;BME280;41676;44.610;44.078;2022-10-13T07:51:22;101017.03;;;17.08;63.13
55757;BME280;41676;44.610;44.078;2022-10-13T07:56:23;100969.47;;;16.52;62.52
55757;BME280;41676;44.610;44.078;2022-10-13T08:01:24;100997.19;;;16.81;61.59
55757;BME280;41676;44.610;44.078;2022-10-13T08:06:25;101040.41;;;17.36;60.56
55757;BME280;41676;44.610;44.078;2022-10-13T08:11:26;101047.38;;;17.58;59.12
55757;BME280;41676;44.610;44.078;2022-10-13T08:16:28;101059.41;;;17.62;56.80
55757;BME280;41676;44.610;44.078;2022-10-13T08:21:29;101053.38;;;17.60;56.61
55757;BME280;41676;44.610;44.078;2022-10-13T08:26:30;101026.97;;;17.70;56.07
55757;BME280;41676;44.610;44.078;2022-10-13T08:31:31;100987.72;;;17.69;55.82
55757;BME280;41676;44.610;44.078;2022-10-13T08:36:31;101022.59;;;17.97;55.44
55757;BME280;41676;44.610;44.078;2022-10-13T08:41:37;100996.34;;;17.99;54.12
55757;BME280;41676;44.610;44.078;2022-10-13T08:52:22;101009.09;;;18.39;51.68
55757;BME280;41676;44.610;44.078;2022-10-13T08:57:24;101014.13;;;18.68;53.40
55757;BME280;41676;44.610;44.078;2022-10-13T09:02:29;101007.47;;;18.51;52.09
55757;BME280;41676;44.610;44.078;2022-10-13T09:07:33;100979.97;;;18.56;52.59
55757;BME280;41676;44.610;44.078;2022-10-13T09:12:36;100997.56;;;18.71;52.59
55757;BME280;41676;44.610;44.078;2022-10-13T09:17:40;100985.97;;;18.64;52.85
55757;BME280;41676;44.610;44.078;2022-10-13T09:22:41;100975.56;;;18.35;53.38
55757;BME280;41676;44.610;44.078;2022-10-13T09:32:44;100971.06;;;18.68;53.37
55757;BME280;41676;44.610;44.078;2022-10-13T09:37:47;100978.09;;;18.56;53.39
55757;BME280;41676;44.610;44.078;2022-10-13T09:43:02;100949.72;;;18.40;52.79
55757;BME280;41676;44.610;44.078;2022-10-13T09:48:19;100949.09;;;18.52;52.77
55757;BME280;41676;44.610;44.078;2022-10-13T09:58:32;100925.72;;;18.45;52.25
55757;BME280;41676;44.610;44.078;2022-10-13T10:03:37;100944.88;;;18.09;52.93
55757;BME280;41676;44.610;44.078;2022-10-13T10:13:49;100845.72;;;17.18;54.54
55757;BME280;41676;44.610;44.078;2022-10-13T10:19:02;100926.06;;;18.09;53.44
55757;BME280;41676;44.610;44.078;2022-10-13T10:24:23;100947.44;;;18.44;52.32
55757;BME280;41676;44.610;44.078;2022-10-13T10:29:52;100862.56;;;17.47;52.82
55757;BME280;41676;44.610;44.078;2022-10-13T10:40:31;100934.00;;;18.44;53.66
55757;BME280;41676;44.610;44.078;2022-10-13T10:45:36;100841.47;;;18.18;52.07
55757;BME280;41676;44.610;44.078;2022-10-13T10:50:38;100934.63;;;19.12;51.83
55757;BME280;41676;44.610;44.078;2022-10-13T10:55:57;100836.91;;;18.92;50.37
55757;BME280;41676;44.610;44.078;2022-10-13T11:01:06;100922.25;;;19.70;50.51
55757;BME280;41676;44.610;44.078;2022-10-13T11:17:02;100923.44;;;19.02;51.12
55757;BME280;41676;44.610;44.078;2022-10-13T11:22:16;100925.09;;;18.63;52.09
55757;BME280;41676;44.610;44.078;2022-10-13T11:27:24;100918.69;;;18.31;52.34
55757;BME280;41676;44.610;44.078;2022-10-13T11:48:29;100916.00;;;18.38;53.25
55757;BME280;41676;44.610;44.078;2022-10-13T11:53:58;100924.06;;;18.38;52.58
55757;BME280;41676;44.610;44.078;2022-10-13T11:59:03;100914.34;;;18.43;53.26
55757;BME280;41676;44.610;44.078;2022-10-13T12:04:13;100910.22;;;18.67;52.22
55757;BME280;41676;44.610;44.078;2022-10-13T12:09:17;100914.78;;;18.74;52.39
55757;BME280;41676;44.610;44.078;2022-10-13T12:14:34;100924.91;;;18.71;51.38
55757;BME280;41676;44.610;44.078;2022-10-13T12:19:38;100843.16;;;18.19;51.75
55757;BME280;41676;44.610;44.078;2022-10-13T12:24:39;100891.78;;;18.31;52.53
55757;BME280;41676;44.610;44.078;2022-10-13T12:29:40;100927.16;;;18.28;53.10
55757;BME280;41676;44.610;44.078;2022-10-13T12:34:41;100822.28;;;17.40;54.29
55757;BME280;41676;44.610;44.078;2022-10-13T12:39:42;100819.31;;;17.22;54.33
55757;BME280;41676;44.610;44.078;2022-10-13T12:44:43;100902.47;;;17.50;55.48
55757;BME280;41676;44.610;44.078;2022-10-13T12:49:44;100807.56;;;16.81;55.10
55757;BME280;41676;44.610;44.078;2022-10-13T12:59:48;100909.44;;;17.38;55.64
55757;BME280;41676;44.610;44.078;2022-10-13T13:04:48;100909.44;;;17.38;56.65
55757;BME280;41676;44.610;44.078;2022-10-13T13:10:00;100907.19;;;17.41;57.20
55757;BME280;41676;44.610;44.078;2022-10-13T13:15:33;100906.13;;;17.36;57.94
55757;BME280;41676;44.610;44.078;2022-10-13T13:20:34;100898.78;;;17.16;58.26
55757;BME280;41676;44.610;44.078;2022-10-13T13:25:37;100873.00;;;16.87;59.04
55757;BME280;41676;44.610;44.078;2022-10-13T13:30:37;100893.81;;;16.78;59.40
55757;BME280;41676;44.610;44.078;2022-10-13T13:35:38;100907.06;;;16.65;59.80
55757;BME280;41676;44.610;44.078;2022-10-13T13:40:39;100899.31;;;16.49;60.45
55757;BME280;41676;44.610;44.078;2022-10-13T13:45:40;100878.44;;;16.23;61.03
55757;BME280;41676;44.610;44.078;2022-10-13T13:50:41;100786.84;;;15.55;61.54
55757;BME280;41676;44.610;44.078;2022-10-13T13:55:43;100870.72;;;15.91;62.85
55757;BME280;41676;44.610;44.078;2022-10-13T14:00:46;100889.78;;;15.82;63.70
55757;BME280;41676;44.610;44.078;2022-10-13T14:05:47;100904.94;;;15.74;64.82
55757;BME280;41676;44.610;44.078;2022-10-13T14:10:48;100883.00;;;15.35;65.98
55757;BME280;41676;44.610;44.078;2022-10-13T14:15:59;100913.53;;;15.25;69.19
55757;BME280;41676;44.610;44.078;2022-10-13T14:21:04;100928.75;;;15.10;68.45
55757;BME280;41676;44.610;44.078;2022-10-13T14:26:06;100912.06;;;14.93;67.51
55757;BME280;41676;44.610;44.078;2022-10-13T14:31:09;100931.78;;;14.92;68.13
55757;BME280;41676;44.610;44.078;2022-10-13T14:36:10;100919.41;;;14.76;68.95
55757;BME280;41676;44.610;44.078;2022-10-13T14:41:11;100918.47;;;14.69;69.79
55757;BME280;41676;44.610;44.078;2022-10-13T14:46:12;100910.44;;;14.46;70.42
55757;BME280;41676;44.610;44.078;2022-10-13T14:51:13;100861.34;;;14.01;71.36
55757;BME280;41676;44.610;44.078;2022-10-13T14:56:24;100919.59;;;14.29;75.90
55757;BME280;41676;44.610;44.078;2022-10-13T15:01:26;100922.75;;;14.09;74.13
55757;BME280;41676;44.610;44.078;2022-10-13T15:06:27;100927.69;;;13.89;75.29
55757;BME280;41676;44.610;44.078;2022-10-13T15:11:28;100927.91;;;13.80;76.25
55757;BME280;41676;44.610;44.078;2022-10-13T15:16:30;100942.81;;;13.66;78.03
55757;BME280;41676;44.610;44.078;2022-10-13T15:21:34;100940.38;;;13.48;78.18
55757;BME280;41676;44.610;44.078;2022-10-13T15:26:35;100874.50;;;12.93;79.17
55757;BME280;41676;44.610;44.078;2022-10-13T15:31:36;100827.25;;;12.54;79.78
55757;BME280;41676;44.610;44.078;2022-10-13T15:36:37;100932.97;;;13.11;80.42
55757;BME280;41676;44.610;44.078;2022-10-13T15:41:37;100837.09;;;12.37;80.96
55757;BME280;41676;44.610;44.078;2022-10-13T15:46:38;100945.16;;;12.89;82.04
55757;BME280;41676;44.610;44.078;2022-10-13T15:51:39;100947.00;;;12.80;82.68
55757;BME280;41676;44.610;44.078;2022-10-13T15:56:40;100840.75;;;12.03;83.30
55757;BME280;41676;44.610;44.078;2022-10-13T16:01:41;100958.16;;;12.67;83.94
55757;BME280;41676;44.610;44.078;2022-10-13T16:06:42;100955.50;;;12.59;84.31
55757;BME280;41676;44.610;44.078;2022-10-13T16:11:43;100879.88;;;12.03;84.67
55757;BME280;41676;44.610;44.078;2022-10-13T16:16:44;100953.69;;;12.51;85.47
55757;BME280;41676;44.610;44.078;2022-10-13T16:21:44;100962.34;;;12.45;86.21
55757;BME280;41676;44.610;44.078;2022-10-13T16:26:46;100865.53;;;11.96;85.70
55757;BME280;41676;44.610;44.078;2022-10-13T16:31:47;100954.97;;;12.47;85.82
55757;BME280;41676;44.610;44.078;2022-10-13T16:36:48;100951.66;;;12.45;86.39
55757;BME280;41676;44.610;44.078;2022-10-13T16:41:50;100927.16;;;12.25;86.22
55757;BME280;41676;44.610;44.078;2022-10-13T16:46:51;100950.31;;;12.41;86.26
55757;BME280;41676;44.610;44.078;2022-10-13T16:51:53;100948.16;;;12.37;86.20
55757;BME280;41676;44.610;44.078;2022-10-13T16:56:53;100943.31;;;12.32;86.62
55757;BME280;41676;44.610;44.078;2022-10-13T17:01:54;100944.16;;;12.24;86.97
55757;BME280;41676;44.610;44.078;2022-10-13T17:06:57;100859.63;;;11.68;87.83
55757;BME280;41676;44.610;44.078;2022-10-13T17:11:58;100934.47;;;12.07;87.54
55757;BME280;41676;44.610;44.078;2022-10-13T17:16:59;100948.31;;;12.19;88.13
55757;BME280;41676;44.610;44.078;2022-10-13T17:22:00;100942.81;;;12.12;87.64
55757;BME280;41676;44.610;44.078;2022-10-13T17:27:00;100925.78;;;12.05;87.65
55757;BME280;41676;44.610;44.078;2022-10-13T17:32:01;100946.78;;;12.16;87.16
55757;BME280;41676;44.610;44.078;2022-10-13T17:37:03;100921.94;;;11.99;87.76
55757;BME280;41676;44.610;44.078;2022-10-13T17:42:04;100848.09;;;11.51;87.36
55757;BME280;41676;44.610;44.078;2022-10-13T17:47:05;100958.13;;;12.18;87.59
55757;BME280;41676;44.610;44.078;2022-10-13T17:52:06;100925.13;;;12.11;87.05
55757;BME280;41676;44.610;44.078;2022-10-13T17:57:07;100831.47;;;11.57;86.70
55757;BME280;41676;44.610;44.078;2022-10-13T18:02:08;100937.16;;;12.15;87.68
55757;BME280;41676;44.610;44.078;2022-10-13T18:07:09;100934.81;;;12.12;88.06
55757;BME280;41676;44.610;44.078;2022-10-13T18:12:10;100938.28;;;12.04;88.19
55757;BME280;41676;44.610;44.078;2022-10-13T18:17:11;100845.09;;;11.46;88.25
55757;BME280;41676;44.610;44.078;2022-10-13T18:22:12;100833.41;;;11.30;88.60
55757;BME280;41676;44.610;44.078;2022-10-13T18:27:13;100937.69;;;11.84;89.07
55757;BME280;41676;44.610;44.078;2022-10-13T18:32:14;100923.00;;;11.72;89.49
55757;BME280;41676;44.610;44.078;2022-10-13T18:37:15;100831.38;;;11.16;89.53
55757;BME280;41676;44.610;44.078;2022-10-13T18:42:16;100924.69;;;11.81;88.65
55757;BME280;41676;44.610;44.078;2022-10-13T18:47:16;100746.16;;;10.83;89.10
55757;BME280;41676;44.610;44.078;2022-10-13T18:52:17;100817.44;;;11.22;89.75
55757;BME280;41676;44.610;44.078;2022-10-13T18:57:18;100922.03;;;11.73;90.31
55757;BME280;41676;44.610;44.078;2022-10-13T19:02:19;100928.03;;;11.83;90.28
55757;BME280;41676;44.610;44.078;2022-10-13T19:07:20;100919.22;;;11.83;90.10
55757;BME280;41676;44.610;44.078;2022-10-13T19:12:21;100729.75;;;10.62;90.24
55757;BME280;41676;44.610;44.078;2022-10-13T19:17:21;100906.38;;;11.70;90.71
55757;BME280;41676;44.610;44.078;2022-10-13T19:22:22;100913.69;;;11.68;91.02
55757;BME280;41676;44.610;44.078;2022-10-13T19:27:23;100892.88;;;11.55;91.50
55757;BME280;41676;44.610;44.078;2022-10-13T19:32:24;100898.19;;;11.63;92.05
55757;BME280;41676;44.610;44.078;2022-10-13T19:37:24;100899.03;;;11.64;92.62
55757;BME280;41676;44.610;44.078;2022-10-13T19:42:25;100900.53;;;11.58;92.61
55757;BME280;41676;44.610;44.078;2022-10-13T19:47:26;100798.50;;;10.91;93.01
55757;BME280;41676;44.610;44.078;2022-10-13T19:52:28;100891.69;;;11.50;93.70
55757;BME280;41676;44.610;44.078;2022-10-13T19:57:29;100894.47;;;11.48;93.83
55757;BME280;41676;44.610;44.078;2022-10-13T20:02:29;100897.63;;;11.43;94.60
55757;BME280;41676;44.610;44.078;2022-10-13T20:07:30;100891.13;;;11.38;95.33
55757;BME280;41676;44.610;44.078;2022-10-13T20:12:31;100897.13;;;11.40;95.67
55757;BME280;41676;44.610;44.078;2022-10-13T20:17:32;100799.78;;;10.79;95.99
55757;BME280;41676;44.610;44.078;2022-10-13T20:22:32;100879.47;;;11.31;96.65
55757;BME280;41676;44.610;44.078;2022-10-13T20:27:33;100889.81;;;11.42;97.36
55757;BME280;41676;44.610;44.078;2022-10-13T20:32:35;100834.31;;;11.05;97.40
55757;BME280;41676;44.610;44.078;2022-10-13T20:37:36;100880.63;;;11.36;97.75
55757;BME280;41676;44.610;44.078;2022-10-13T20:42:37;100882.09;;;11.23;98.01
55757;BME280;41676;44.610;44.078;2022-10-13T20:47:38;100892.41;;;11.26;98.53
55757;BME280;41676;44.610;44.078;2022-10-13T20:52:38;100786.88;;;10.58;98.66
55757;BME280;41676;44.610;44.078;2022-10-13T20:57:39;100856.53;;;10.95;99.00
55757;BME280;41676;44.610;44.078;2022-10-13T21:02:40;100875.47;;;11.01;98.95
55757;BME280;41676;44.610;44.078;2022-10-13T21:07:40;100767.03;;;10.26;99.42
55757;BME280;41676;44.610;44.078;2022-10-13T21:12:41;100874.06;;;10.88;100.00
55757;BME280;41676;44.610;44.078;2022-10-13T21:17:42;100766.63;;;10.13;99.95
55757;BME280;41676;44.610;44.078;2022-10-13T21:22:43;100857.72;;;10.75;100.00
55757;BME280;41676;44.610;44.078;2022-10-13T21:27:44;100857.41;;;10.78;100.00
55757;BME280;41676;44.610;44.078;2022-10-13T21:32:44;100869.19;;;10.76;100.00
55757;BME280;41676;44.610;44.078;2022-10-13T21:37:45;100809.53;;;10.26;100.00
55757;BME280;41676;44.610;44.078;2022-10-13T21:42:46;100883.84;;;10.62;100.00
55757;BME280;41676;44.610;44.078;2022-10-13T21:47:47;100886.78;;;10.50;100.00
55757;BME280;41676;44.610;44.078;2022-10-13T21:52:48;100791.06;;;9.98;100.00
55757;BME280;41676;44.610;44.078;2022-10-13T21:57:49;100782.25;;;9.98;100.00
55757;BME280;41676;44.610;44.078;2022-10-13T22:02:49;100863.13;;;10.39;100.00
55757;BME280;41676;44.610;44.078;2022-10-13T22:07:50;100698.22;;;9.27;100.00
55757;BME280;41676;44.610;44.078;2022-10-13T22:12:51;100760.06;;;9.63;100.00
55757;BME280;41676;44.610;44.078;2022-10-13T22:17:52;100772.38;;;9.64;100.00
55757;BME280;41676;44.610;44.078;2022-10-13T22:22:53;100852.72;;;10.10;100.00
55757;BME280;41676;44.610;44.078;2022-10-13T22:27:53;100861.16;;;10.05;100.00
55757;BME280;41676;44.610;44.078;2022-10-13T22:32:54;100874.47;;;10.14;100.00
55757;BME280;41676;44.610;44.078;2022-10-13T22:37:55;100877.13;;;10.14;100.00
55757;BME280;41676;44.610;44.078;2022-10-13T22:42:56;100874.47;;;10.14;100.00
55757;BME280;41676;44.610;44.078;2022-10-13T22:47:56;100854.63;;;10.00;100.00
55757;BME280;41676;44.610;44.078;2022-10-13T22:52:57;100867.41;;;10.04;100.00
55757;BME280;41676;44.610;44.078;2022-10-13T22:57:58;100876.28;;;9.95;100.00
55757;BME280;41676;44.610;44.078;2022-10-13T23:02:58;100837.09;;;9.71;100.00
55757;BME280;41676;44.610;44.078;2022-10-13T23:07:59;100817.44;;;9.64;100.00
55757;BME280;41676;44.610;44.078;2022-10-13T23:13:00;100837.09;;;9.71;100.00
55757;BME280;41676;44.610;44.078;2022-10-13T23:18:01;100846.72;;;9.72;100.00
55757;BME280;41676;44.610;44.078;2022-10-13T23:23:01;100858.84;;;9.75;100.00
55757;BME280;41676;44.610;44.078;2022-10-13T23:28:03;100839.06;;;9.69;100.00
55757;BME280;41676;44.610;44.078;2022-10-13T23:33:03;100723.03;;;8.90;100.00
55757;BME280;41676;44.610;44.078;2022-10-13T23:38:04;100863.22;;;9.66;100.00
55757;BME280;41676;44.610;44.078;2022-10-13T23:43:05;100727.63;;;8.88;100.00
55757;BME280;41676;44.610;44.078;2022-10-13T23:48:06;100778.75;;;9.26;100.00
55757;BME280;41676;44.610;44.078;2022-10-13T23:53:06;100750.63;;;9.15;100.00
55757;BME280;41676;44.610;44.078;2022-10-13T23:58:07;100862.66;;;9.72;100.00
